sensor_id;sensor_type;location;lat;lon;timestamp;temperature;humidity
10306;DHT22;5198;52.382;9.020;2022-07-03T03:01:03;16.50;99.90
10306;DHT22;5198;52.382;9.020;2022-07-03T03:05:11;17.10;98.50
10306;DHT22;5198;52.382;9.020;2022-07-03T03:09:18;16.90;95.30
10306;DHT22;5198;52.382;9.020;2022-07-03T03:13:23;16.80;95.60
10306;DHT22;5198;52.382;9.020;2022-07-03T03:17:36;16.80;95.40
10306;DHT22;5198;52.382;9.020;2022-07-03T03:21:42;16.70;95.60
10306;DHT22;5198;52.382;9.020;2022-07-03T03:25:45;16.70;95.40
10306;DHT22;5198;52.382;9.020;2022-07-03T03:29:48;16.60;95.60
10306;DHT22;5198;52.382;9.020;2022-07-03T03:33:53;16.60;96.40
10306;DHT22;5198;52.382;9.020;2022-07-03T03:37:57;16.60;98.80
10306;DHT22;5198;52.382;9.020;2022-07-03T03:42:00;16.50;99.80
10306;DHT22;5198;52.382;9.020;2022-07-03T03:46:03;16.40;99.90
10306;DHT22;5198;52.382;9.020;2022-07-03T03:50:08;16.40;99.90
10306;DHT22;5198;52.382;9.020;2022-07-03T03:54:12;16.40;99.90
10306;DHT22;5198;52.382;9.020;2022-07-03T03:58:14;16.40;99.90
10306;DHT22;5198;52.382;9.020;2022-07-03T04:02:18;16.40;99.90
10306;DHT22;5198;52.382;9.020;2022-07-03T04:06:22;16.50;99.90
10306;DHT22;5198;52.382;9.020;2022-07-03T04:10:25;16.50;99.90
10306;DHT22;5198;52.382;9.020;2022-07-03T04:14:28;16.50;99.90
10306;DHT22;5198;52.382;9.020;2022-07-03T04:18:31;16.50;99.90
10306;DHT22;5198;52.382;9.020;2022-07-03T04:22:35;16.60;99.90
10306;DHT22;5198;52.382;9.020;2022-07-03T04:26:38;16.60;99.90
10306;DHT22;5198;52.382;9.020;2022-07-03T04:30:41;16.60;99.90
10306;DHT22;5198;52.382;9.020;2022-07-03T04:34:44;16.70;99.90
10306;DHT22;5198;52.382;9.020;2022-07-03T04:38:48;16.70;99.50
10306;DHT22;5198;52.382;9.020;2022-07-03T04:42:51;16.80;98.80
10306;DHT22;5198;52.382;9.020;2022-07-03T04:46:53;16.80;97.40
10306;DHT22;5198;52.382;9.020;2022-07-03T04:50:56;16.90;97.90
10306;DHT22;5198;52.382;9.020;2022-07-03T04:55:01;17.00;97.30
10306;DHT22;5198;52.382;9.020;2022-07-03T04:59:04;17.00;96.60
10306;DHT22;5198;52.382;9.020;2022-07-03T05:03:07;17.10;96.60
10306;DHT22;5198;52.382;9.020;2022-07-03T05:07:10;17.20;95.70
10306;DHT22;5198;52.382;9.020;2022-07-03T05:11:14;17.30;94.90
10306;DHT22;5198;52.382;9.020;2022-07-03T05:15:17;17.30;94.80
10306;DHT22;5198;52.382;9.020;2022-07-03T05:19:20;17.40;94.50
10306;DHT22;5198;52.382;9.020;2022-07-03T05:23:23;17.50;95.40
10306;DHT22;5198;52.382;9.020;2022-07-03T05:27:27;17.60;95.50
10306;DHT22;5198;52.382;9.020;2022-07-03T05:31:30;17.70;98.60
10306;DHT22;5198;52.382;9.020;2022-07-03T05:35:33;17.80;99.90
10306;DHT22;5198;52.382;9.020;2022-07-03T05:39:36;18.00;99.90
10306;DHT22;5198;52.382;9.020;2022-07-03T05:43:40;18.10;99.90
10306;DHT22;5198;52.382;9.020;2022-07-03T05:47:43;18.10;99.90
10306;DHT22;5198;52.382;9.020;2022-07-03T05:51:46;18.30;99.90
10306;DHT22;5198;52.382;9.020;2022-07-03T05:55:49;18.30;95.20
10306;DHT22;5198;52.382;9.020;2022-07-03T05:59:53;18.40;95.80
10306;DHT22;5198;52.382;9.020;2022-07-03T06:03:56;18.60;99.90
10306;DHT22;5198;52.382;9.020;2022-07-03T06:07:59;18.70;99.90
10306;DHT22;5198;52.382;9.020;2022-07-03T06:12:03;18.90;99.90
10306;DHT22;5198;52.382;9.020;2022-07-03T06:16:07;19.00;99.90
10306;DHT22;5198;52.382;9.020;2022-07-03T06:20:10;19.20;99.90
10306;DHT22;5198;52.382;9.020;2022-07-03T06:24:13;19.40;99.90
10306;DHT22;5198;52.382;9.020;2022-07-03T06:28:16;19.50;99.90
10306;DHT22;5198;52.382;9.020;2022-07-03T09:55:36;28.10;93.90
10306;DHT22;5198;52.382;9.020;2022-07-03T09:59:41;28.20;93.30
10306;DHT22;5198;52.382;9.020;2022-07-03T10:03:46;28.40;99.90
10306;DHT22;5198;52.382;9.020;2022-07-03T10:07:50;28.50;92.80
10306;DHT22;5198;52.382;9.020;2022-07-03T10:11:55;28.70;92.80
10306;DHT22;5198;52.382;9.020;2022-07-03T10:48:59;30.60;98.50
10306;DHT22;5198;52.382;9.020;2022-07-03T11:01:24;30.60;90.30
10306;DHT22;5198;52.382;9.020;2022-07-03T11:05:36;30.50;90.60
10306;DHT22;5198;52.382;9.020;2022-07-03T11:09:43;30.50;89.00
10306;DHT22;5198;52.382;9.020;2022-07-03T11:18:16;30.80;84.60
10306;DHT22;5198;52.382;9.020;2022-07-03T11:22:20;30.80;89.10
10306;DHT22;5198;52.382;9.020;2022-07-03T11:26:26;30.80;90.10
10306;DHT22;5198;52.382;9.020;2022-07-03T11:30:29;30.90;90.40
10306;DHT22;5198;52.382;9.020;2022-07-03T11:34:41;31.10;87.50
10306;DHT22;5198;52.382;9.020;2022-07-03T11:38:47;31.20;85.40
10306;DHT22;5198;52.382;9.020;2022-07-03T11:42:50;31.20;83.20
10306;DHT22;5198;52.382;9.020;2022-07-03T11:46:53;31.30;86.80
10306;DHT22;5198;52.382;9.020;2022-07-03T11:50:59;31.50;87.90
10306;DHT22;5198;52.382;9.020;2022-07-03T11:55:04;31.60;86.60
10306;DHT22;5198;52.382;9.020;2022-07-03T11:59:07;31.80;81.00
10306;DHT22;5198;52.382;9.020;2022-07-03T22:28:56;19.30;99.90
10306;DHT22;5198;52.382;9.020;2022-07-03T22:32:59;19.60;96.70
10306;DHT22;5198;52.382;9.020;2022-07-03T22:37:02;19.40;95.20
10306;DHT22;5198;52.382;9.020;2022-07-03T22:45:10;19.20;99.90
10306;DHT22;5198;52.382;9.020;2022-07-03T22:49:13;19.10;99.90
10306;DHT22;5198;52.382;9.020;2022-07-03T22:53:16;19.00;99.90
10306;DHT22;5198;52.382;9.020;2022-07-03T22:57:19;19.20;99.90
10306;DHT22;5198;52.382;9.020;2022-07-03T23:01:23;18.80;93.10
10306;DHT22;5198;52.382;9.020;2022-07-03T23:05:26;18.70;92.60
10306;DHT22;5198;52.382;9.020;2022-07-03T23:09:29;18.60;93.20
10306;DHT22;5198;52.382;9.020;2022-07-03T23:13:37;18.60;93.40
10306;DHT22;5198;52.382;9.020;2022-07-03T23:17:41;18.50;93.60
10306;DHT22;5198;52.382;9.020;2022-07-03T23:21:44;18.40;93.50
10306;DHT22;5198;52.382;9.020;2022-07-03T23:25:47;18.30;94.30
10306;DHT22;5198;52.382;9.020;2022-07-03T23:29:50;18.30;93.50
10306;DHT22;5198;52.382;9.020;2022-07-03T23:33:54;18.20;93.60
10306;DHT22;5198;52.382;9.020;2022-07-03T23:37:57;18.10;93.40
10306;DHT22;5198;52.382;9.020;2022-07-03T23:42:00;18.00;93.60
10306;DHT22;5198;52.382;9.020;2022-07-03T23:46:03;18.00;93.50
10306;DHT22;5198;52.382;9.020;2022-07-03T23:50:08;17.90;93.70
10306;DHT22;5198;52.382;9.020;2022-07-03T23:54:28;17.80;93.80
10306;DHT22;5198;52.382;9.020;2022-07-03T23:58:31;17.80;94.20
